createdAt,value
2023-02-16T05:00:31.998Z,0.32
2023-02-16T05:01:31.968Z,0.32
2023-02-16T05:02:31.913Z,0.26
2023-02-16T05:03:31.907Z,0.24
2023-02-16T05:04:31.955Z,0.21
2023-02-16T05:05:31.910Z,0.23
2023-02-16T05:06:31.867Z,0.23
2023-02-16T05:07:31.873Z,0.29
2023-02-16T05:08:31.891Z,0.33
2023-02-16T05:09:31.849Z,0.33
2023-02-16T05:10:31.908Z,0.31
2023-02-16T05:11:36.857Z,0.21
2023-02-16T05:12:31.802Z,0.29
2023-02-16T05:13:31.804Z,0.26
2023-02-16T05:14:31.781Z,0.29
2023-02-16T05:15:31.901Z,0.35
2023-02-16T05:16:31.795Z,0.20
2023-02-16T05:17:31.768Z,0.23
2023-02-16T05:18:31.754Z,0.29
2023-02-16T05:19:31.785Z,0.18
2023-02-16T05:20:31.733Z,0.23
2023-02-16T05:21:31.701Z,0.29
2023-02-16T05:22:36.721Z,0.31
2023-02-16T05:23:31.678Z,0.29
2023-02-16T05:24:31.672Z,0.20
2023-02-16T05:25:31.735Z,0.29
2023-02-16T05:26:31.652Z,0.33
2023-02-16T05:27:31.653Z,0.29
2023-02-16T05:28:31.872Z,0.35
2023-02-16T05:29:31.656Z,0.29
2023-02-16T05:30:31.718Z,0.39
2023-02-16T05:31:31.682Z,0.35
2023-02-16T05:32:31.620Z,0.21
2023-02-16T05:33:36.588Z,0.32
2023-02-16T05:34:31.564Z,0.28
2023-02-16T05:35:31.586Z,0.39
2023-02-16T05:36:31.551Z,0.33
2023-02-16T05:37:31.542Z,0.39
2023-02-16T05:38:31.531Z,0.36
2023-02-16T05:39:31.515Z,0.50
2023-02-16T05:40:31.510Z,0.50
2023-02-16T05:41:31.531Z,0.47
2023-02-16T05:42:31.493Z,0.55
2023-02-16T05:43:31.466Z,0.47
2023-02-16T05:44:36.590Z,0.46
2023-02-16T05:45:31.448Z,0.47
2023-02-16T05:46:31.548Z,0.50
2023-02-16T05:47:31.450Z,0.44
2023-02-16T05:48:31.444Z,0.39
2023-02-16T05:49:31.435Z,0.53
2023-02-16T05:50:31.421Z,0.53
2023-02-16T05:51:31.446Z,0.55
2023-02-16T05:52:31.379Z,0.57
2023-02-16T05:53:31.356Z,0.44
2023-02-16T05:54:31.359Z,0.55
2023-02-16T05:55:36.376Z,0.47
2023-02-16T05:56:31.362Z,0.39
2023-02-16T05:57:31.322Z,0.49
2023-02-16T05:58:31.321Z,0.44
2023-02-16T05:59:31.344Z,0.47
2023-02-16T06:00:31.297Z,0.50
2023-02-16T06:01:31.325Z,0.47
2023-02-16T06:02:31.314Z,0.53
2023-02-16T06:03:31.354Z,0.42
2023-02-16T06:04:31.267Z,0.39
2023-02-16T06:05:31.240Z,0.50
2023-02-16T06:06:36.347Z,0.42
2023-02-16T06:07:31.211Z,0.47
2023-02-16T06:08:31.192Z,0.49
2023-02-16T06:09:31.317Z,0.57
2023-02-16T06:10:31.174Z,0.50
2023-02-16T06:11:31.198Z,0.39
2023-02-16T06:12:31.143Z,0.50
2023-02-16T06:13:31.162Z,0.55
2023-02-16T06:14:31.128Z,0.38
2023-02-16T06:15:31.116Z,0.47
2023-02-16T06:16:31.152Z,0.47
2023-02-16T06:17:36.129Z,0.49
2023-02-16T06:18:31.082Z,0.55
2023-02-16T06:19:31.068Z,0.46
2023-02-16T06:20:31.080Z,0.50
2023-02-16T06:21:31.064Z,0.58
2023-02-16T06:22:31.095Z,0.47
2023-02-16T06:23:31.032Z,0.47
2023-02-16T06:24:31.316Z,0.53
2023-02-16T06:25:31.022Z,0.47
2023-02-16T06:26:31.004Z,0.50
2023-02-16T06:27:31.028Z,0.55
2023-02-16T06:28:35.996Z,0.47
2023-02-16T06:29:30.959Z,0.47
2023-02-16T06:30:30.987Z,0.51
2023-02-16T06:31:31.017Z,0.53
2023-02-16T06:32:31.093Z,0.55
2023-02-16T06:33:30.943Z,0.46
2023-02-16T06:34:30.901Z,0.49
2023-02-16T06:35:30.908Z,0.51
2023-02-16T06:36:30.997Z,0.53
2023-02-16T06:37:30.933Z,0.53
2023-02-16T06:38:30.860Z,0.55
2023-02-16T06:39:35.934Z,0.49
2023-02-16T06:40:30.855Z,0.51
2023-02-16T06:41:30.841Z,0.53
2023-02-16T06:42:30.850Z,0.53
2023-02-16T06:43:31.027Z,0.57
2023-02-16T06:44:30.867Z,0.57
2023-02-16T06:45:30.794Z,0.61
2023-02-16T06:46:30.886Z,0.62
2023-02-16T06:47:30.902Z,0.58
2023-02-16T06:48:30.772Z,0.53
2023-02-16T06:49:30.744Z,0.53
2023-02-16T06:50:35.744Z,0.53
2023-02-16T06:51:30.716Z,0.49
2023-02-16T06:52:30.807Z,0.49
2023-02-16T06:53:30.705Z,0.58
2023-02-16T06:54:30.706Z,0.57
2023-02-16T06:55:30.664Z,0.57
2023-02-16T06:56:30.653Z,0.53
2023-02-16T06:57:30.738Z,0.61
2023-02-16T06:58:30.653Z,0.53
2023-02-16T06:59:30.637Z,0.51
2023-02-16T07:00:30.716Z,0.55
2023-02-16T07:01:35.632Z,0.57
2023-02-16T07:02:30.603Z,0.60
2023-02-16T07:03:30.676Z,0.50
2023-02-16T07:04:30.586Z,0.60
2023-02-16T07:05:30.579Z,0.60
2023-02-16T07:06:30.664Z,0.61
2023-02-16T07:07:30.548Z,0.65
2023-02-16T07:08:31.729Z,0.60
2023-02-16T07:09:30.712Z,0.62
2023-02-16T07:10:43.655Z,0.75
2023-02-16T07:11:31.511Z,0.70
2023-02-16T07:12:35.672Z,0.72
2023-02-16T07:13:30.540Z,0.79
2023-02-16T07:14:30.472Z,0.73
2023-02-16T07:15:30.447Z,0.78
2023-02-16T07:16:30.510Z,0.78
2023-02-16T07:17:30.442Z,0.75
2023-02-16T07:18:30.461Z,0.79
2023-02-16T07:19:30.406Z,0.75
2023-02-16T07:20:30.420Z,0.79
2023-02-16T07:21:30.391Z,0.76
2023-02-16T07:22:30.371Z,0.78
2023-02-16T07:23:35.459Z,0.80
2023-02-16T07:24:30.371Z,0.86
2023-02-16T07:25:30.379Z,0.76
2023-02-16T07:26:30.378Z,0.83
2023-02-16T07:27:30.376Z,0.84
2023-02-16T07:28:30.378Z,0.84
2023-02-16T07:29:30.333Z,0.84
2023-02-16T07:30:30.353Z,0.80
2023-02-16T07:31:30.528Z,0.76
2023-02-16T07:32:30.331Z,0.73
2023-02-16T07:33:30.249Z,0.84
2023-02-16T07:34:35.298Z,0.84
2023-02-16T07:35:30.244Z,0.87
2023-02-16T07:36:30.213Z,0.87
2023-02-16T07:37:30.227Z,0.90
2023-02-16T07:38:30.202Z,0.90
2023-02-16T07:39:30.235Z,1.00
2023-02-16T07:40:30.184Z,0.86
2023-02-16T07:41:30.272Z,0.87
2023-02-16T07:42:30.174Z,0.88
2023-02-16T07:43:30.133Z,0.79
2023-02-16T07:44:30.873Z,0.90
2023-02-16T07:45:35.207Z,0.96
2023-02-16T07:46:33.004Z,0.87
2023-02-16T07:47:30.092Z,0.84
2023-02-16T07:48:30.096Z,0.91
2023-02-16T07:49:30.375Z,0.80
2023-02-16T07:50:30.062Z,0.90
2023-02-16T07:51:30.057Z,0.91
2023-02-16T07:52:31.292Z,0.78
2023-02-16T07:53:30.038Z,0.88
2023-02-16T07:54:31.116Z,0.91
2023-02-16T07:55:30.030Z,0.86
2023-02-16T07:56:35.201Z,0.84
2023-02-16T07:57:30.002Z,0.76
2023-02-16T07:58:30.039Z,0.83
2023-02-16T07:59:29.978Z,0.87
2023-02-16T08:00:29.945Z,0.76
2023-02-16T08:01:29.965Z,0.80
2023-02-16T08:02:30.151Z,0.73
2023-02-16T08:03:29.961Z,0.76
2023-02-16T08:04:30.013Z,0.76
2023-02-16T08:05:31.960Z,0.83
2023-02-16T08:06:30.924Z,0.88
2023-02-16T08:07:34.887Z,0.90
2023-02-16T08:08:29.873Z,0.94
2023-02-16T08:09:29.937Z,1.02
2023-02-16T08:10:29.856Z,1.04
2023-02-16T08:11:30.003Z,1.00
2023-02-16T08:12:29.909Z,1.00
2023-02-16T08:13:29.853Z,1.08
2023-02-16T08:14:29.847Z,1.18
2023-02-16T08:15:29.781Z,1.12
2023-02-16T08:16:29.818Z,1.18
2023-02-16T08:17:29.789Z,1.23
2023-02-16T08:18:34.791Z,1.30
2023-02-16T08:19:34.474Z,1.34
2023-02-16T08:20:48.189Z,1.27
2023-02-16T08:21:30.728Z,1.23
2023-02-16T08:22:29.717Z,1.22
2023-02-16T08:23:29.739Z,1.04
2023-02-16T08:24:29.741Z,1.00
2023-02-16T08:25:29.711Z,0.97
2023-02-16T08:26:29.675Z,1.08
2023-02-16T08:27:29.703Z,1.11
2023-02-16T08:28:29.666Z,1.12
2023-02-16T08:29:34.720Z,1.09
2023-02-16T08:31:32.124Z,1.18
2023-02-16T08:32:29.697Z,1.14
2023-02-16T08:33:29.576Z,1.18
2023-02-16T08:34:29.591Z,1.16
2023-02-16T08:35:29.558Z,1.24
2023-02-16T08:36:29.574Z,1.26
2023-02-16T08:37:29.533Z,1.24
2023-02-16T08:38:29.528Z,1.18
2023-02-16T08:39:29.513Z,1.26
2023-02-16T08:40:34.551Z,1.18
2023-02-16T08:41:29.487Z,1.22
2023-02-16T08:42:29.494Z,1.30
2023-02-16T08:43:29.494Z,1.30
2023-02-16T08:44:29.559Z,1.26
2023-02-16T08:45:29.444Z,1.27
2023-02-16T08:46:29.605Z,1.36
2023-02-16T08:47:29.423Z,1.27
2023-02-16T08:48:29.412Z,1.30
2023-02-16T08:49:29.406Z,1.33
2023-02-16T08:50:29.386Z,1.37
2023-02-16T08:51:34.412Z,1.40
2023-02-16T08:52:29.366Z,1.37
2023-02-16T08:53:29.352Z,1.41
2023-02-16T08:54:29.357Z,1.41
2023-02-16T08:55:29.329Z,1.45
2023-02-16T08:56:29.318Z,1.48
2023-02-16T08:57:29.304Z,1.40
2023-02-16T08:58:29.437Z,1.45
2023-02-16T08:59:29.413Z,1.40
2023-02-16T09:00:29.298Z,1.47
2023-02-16T09:01:29.345Z,1.40
2023-02-16T09:02:34.284Z,1.42
2023-02-16T09:03:29.237Z,1.36
2023-02-16T09:04:29.329Z,1.32
2023-02-16T09:05:29.250Z,1.36
2023-02-16T09:06:29.210Z,1.40
2023-02-16T09:07:29.233Z,1.42
2023-02-16T09:08:29.183Z,1.40
2023-02-16T09:09:29.173Z,1.62
2023-02-16T09:10:29.195Z,1.60
2023-02-16T09:11:29.151Z,1.55
2023-02-16T09:12:29.143Z,1.55
2023-02-16T09:13:34.148Z,1.66
2023-02-16T09:14:29.117Z,1.72
2023-02-16T09:15:29.137Z,1.83
2023-02-16T09:16:29.173Z,1.87
2023-02-16T09:17:29.091Z,1.90
2023-02-16T09:18:29.072Z,1.83
2023-02-16T09:19:29.069Z,1.86
2023-02-16T09:20:29.065Z,1.98
2023-02-16T09:21:29.043Z,1.93
2023-02-16T09:22:29.030Z,1.98
2023-02-16T09:23:29.017Z,2.09
2023-02-16T09:24:34.045Z,2.10
2023-02-16T09:25:29.004Z,2.02
2023-02-16T09:26:28.983Z,2.02
2023-02-16T09:27:28.972Z,2.00
2023-02-16T09:28:28.962Z,2.07
2023-02-16T09:29:28.949Z,2.14
2023-02-16T09:30:29.071Z,2.25
2023-02-16T09:31:29.292Z,2.36
2023-02-16T09:32:28.920Z,2.42
2023-02-16T09:33:28.907Z,2.59
2023-02-16T09:34:28.893Z,2.67
2023-02-16T09:35:33.914Z,2.90
2023-02-16T09:36:28.869Z,3.03
2023-02-16T09:37:28.867Z,3.28
2023-02-16T09:38:28.859Z,3.28
2023-02-16T09:39:28.842Z,3.24
2023-02-16T09:40:28.918Z,3.18
2023-02-16T09:41:28.824Z,3.17
2023-02-16T09:42:28.806Z,3.32
2023-02-16T09:43:28.791Z,3.55
2023-02-16T09:44:28.788Z,3.54
2023-02-16T09:45:28.825Z,3.96
2023-02-16T09:46:33.817Z,4.27
2023-02-16T09:47:28.745Z,4.51
2023-02-16T09:48:28.736Z,4.70
2023-02-16T09:49:28.722Z,4.91
2023-02-16T09:50:50.706Z,5.21
2023-02-16T09:51:34.334Z,5.15
2023-02-16T09:52:29.691Z,5.25
2023-02-16T09:53:28.683Z,5.02
2023-02-16T09:54:28.704Z,5.13
2023-02-16T09:55:28.666Z,5.63
2023-02-16T09:56:28.658Z,5.36
2023-02-16T09:57:33.655Z,5.42
2023-02-16T09:58:28.622Z,5.40
2023-02-16T09:59:28.612Z,5.43
2023-02-16T10:00:28.614Z,5.48
2023-02-16T10:01:28.624Z,5.40
2023-02-16T10:02:28.616Z,5.27
2023-02-16T10:03:28.571Z,5.31
2023-02-16T10:04:28.567Z,5.20
2023-02-16T10:05:28.554Z,5.40
2023-02-16T10:06:28.541Z,5.82
2023-02-16T10:07:28.526Z,6.09
2023-02-16T10:08:33.565Z,6.36
2023-02-16T10:09:28.499Z,6.43
2023-02-16T10:10:28.503Z,6.55
2023-02-16T10:11:28.486Z,6.74
2023-02-16T10:12:28.472Z,6.59
2023-02-16T10:13:28.458Z,6.46
2023-02-16T10:14:28.446Z,6.44
2023-02-16T10:15:28.485Z,6.79
2023-02-16T10:16:28.442Z,6.99
2023-02-16T10:17:28.491Z,7.17
2023-02-16T10:18:28.421Z,7.42
2023-02-16T10:19:33.413Z,6.95
2023-02-16T10:20:28.375Z,6.97
2023-02-16T10:21:28.375Z,6.77
2023-02-16T10:22:28.358Z,6.80
2023-02-16T10:23:28.351Z,6.55
2023-02-16T10:24:28.329Z,6.41
2023-02-16T10:25:28.316Z,6.28
2023-02-16T10:26:28.321Z,6.38
2023-02-16T10:27:28.297Z,6.58
2023-02-16T10:28:28.284Z,6.43
2023-02-16T10:29:28.273Z,6.44
2023-02-16T10:30:33.303Z,6.46
2023-02-16T10:31:28.417Z,6.55
2023-02-16T10:32:28.242Z,6.46
2023-02-16T10:33:28.233Z,6.76
2023-02-16T10:34:28.241Z,7.23
2023-02-16T10:35:28.209Z,7.60
2023-02-16T10:36:28.206Z,7.83
2023-02-16T10:37:28.188Z,7.98
2023-02-16T10:38:28.175Z,8.15
2023-02-16T10:39:28.163Z,8.02
2023-02-16T10:40:28.154Z,7.92
2023-02-16T10:41:33.176Z,8.22
2023-02-16T10:42:28.133Z,8.47
2023-02-16T10:43:28.118Z,8.66
2023-02-16T10:44:28.115Z,8.62
2023-02-16T10:45:28.104Z,8.45
2023-02-16T10:46:28.179Z,8.20
2023-02-16T10:47:28.082Z,8.05
2023-02-16T10:48:28.064Z,8.08
2023-02-16T10:49:28.059Z,8.48
2023-02-16T10:50:28.150Z,8.73
2023-02-16T10:51:28.062Z,8.55
2023-02-16T10:52:33.050Z,8.41
2023-02-16T10:53:28.008Z,8.22
2023-02-16T10:54:27.996Z,7.64
2023-02-16T10:55:27.986Z,7.21
2023-02-16T10:56:27.980Z,7.10
2023-02-16T10:57:27.980Z,7.09
2023-02-16T10:58:27.950Z,6.98
2023-02-16T10:59:27.939Z,6.99
2023-02-16T11:00:27.928Z,6.99
2023-02-16T11:01:27.970Z,7.13
2023-02-16T11:02:27.916Z,7.30
2023-02-16T11:03:32.916Z,7.12
2023-02-16T11:04:27.895Z,7.30
2023-02-16T11:05:27.878Z,7.30
2023-02-16T11:06:27.882Z,7.25
2023-02-16T11:07:27.861Z,7.31
2023-02-16T11:08:29.740Z,7.48
2023-02-16T11:09:27.828Z,7.55
2023-02-16T11:10:27.840Z,7.64
2023-02-16T11:11:27.806Z,7.83
2023-02-16T11:12:27.811Z,7.89
2023-02-16T11:13:27.793Z,7.83
2023-02-16T11:14:32.796Z,7.90
2023-02-16T11:15:27.763Z,7.79
2023-02-16T11:16:27.756Z,7.82
2023-02-16T11:17:27.777Z,7.89
2023-02-16T11:18:27.728Z,7.87
2023-02-16T11:19:27.719Z,8.08
2023-02-16T11:20:27.706Z,8.34
2023-02-16T11:21:27.696Z,8.28
2023-02-16T11:22:27.738Z,8.10
2023-02-16T11:23:27.680Z,8.08
2023-02-16T11:24:27.661Z,8.16
2023-02-16T11:25:32.678Z,8.23
2023-02-16T11:26:27.642Z,8.22
2023-02-16T11:27:27.673Z,8.16
2023-02-16T11:28:27.616Z,8.01
2023-02-16T11:29:27.620Z,7.89
2023-02-16T11:30:27.618Z,7.98
2023-02-16T11:31:27.756Z,8.00
2023-02-16T11:32:27.613Z,8.18
2023-02-16T11:33:27.583Z,8.40
2023-02-16T11:34:27.561Z,8.52
2023-02-16T11:35:27.540Z,8.65
2023-02-16T11:36:32.552Z,8.59
2023-02-16T11:37:27.528Z,8.45
2023-02-16T11:38:27.530Z,8.41
2023-02-16T11:39:27.495Z,8.41
2023-02-16T11:40:27.517Z,8.43
2023-02-16T11:41:27.471Z,8.20
2023-02-16T11:42:27.466Z,8.19
2023-02-16T11:43:27.465Z,8.33
2023-02-16T11:44:27.438Z,8.43
2023-02-16T11:45:28.726Z,8.45
2023-02-16T11:46:27.427Z,8.34
2023-02-16T11:47:32.428Z,8.20
2023-02-16T11:48:27.395Z,8.20
2023-02-16T11:49:27.383Z,8.40
2023-02-16T11:50:27.358Z,8.34
2023-02-16T11:51:27.348Z,8.38
2023-02-16T11:52:27.352Z,8.50
2023-02-16T11:53:27.326Z,8.50
2023-02-16T11:54:27.350Z,8.52
2023-02-16T11:55:27.318Z,8.65
2023-02-16T11:56:27.339Z,8.73
2023-02-16T11:57:27.281Z,8.89
2023-02-16T11:58:32.302Z,8.89
2023-02-16T11:59:27.259Z,9.08
2023-02-16T12:00:27.250Z,9.18
2023-02-16T12:01:27.237Z,9.31
2023-02-16T12:02:27.244Z,9.24
2023-02-16T12:03:27.262Z,9.17
2023-02-16T12:04:27.201Z,9.10
2023-02-16T12:05:27.228Z,8.96
2023-02-16T12:06:27.180Z,9.02
2023-02-16T12:07:27.183Z,9.01
2023-02-16T12:08:27.171Z,9.13
2023-02-16T12:09:32.289Z,9.24
2023-02-16T12:10:27.136Z,9.40
2023-02-16T12:11:27.129Z,9.47
2023-02-16T12:12:27.112Z,9.40
2023-02-16T12:13:27.114Z,9.51
2023-02-16T12:14:27.090Z,9.42
2023-02-16T12:15:27.081Z,9.47
2023-02-16T12:16:27.108Z,9.61
2023-02-16T12:17:27.060Z,9.53
2023-02-16T12:18:27.054Z,9.66
2023-02-16T12:19:27.038Z,9.69
2023-02-16T12:20:32.076Z,9.74
2023-02-16T12:21:27.017Z,9.65
2023-02-16T12:22:27.008Z,9.69
2023-02-16T12:23:27.008Z,9.74
2023-02-16T12:24:26.980Z,9.76
2023-02-16T12:25:26.991Z,9.66
2023-02-16T12:26:26.980Z,9.69
2023-02-16T12:27:26.945Z,9.78
2023-02-16T12:28:26.944Z,9.86
2023-02-16T12:29:26.923Z,9.69
2023-02-16T12:30:26.953Z,9.72
2023-02-16T12:31:32.105Z,9.83
2023-02-16T12:32:26.900Z,9.90
2023-02-16T12:33:26.883Z,9.87
2023-02-16T12:34:26.866Z,9.90
2023-02-16T12:35:26.853Z,9.87
2023-02-16T12:36:26.849Z,10.08
2023-02-16T12:37:26.873Z,10.12
2023-02-16T12:38:26.829Z,10.23
2023-02-16T12:39:26.807Z,10.20
2023-02-16T12:40:26.862Z,10.20
2023-02-16T12:41:26.802Z,10.23
2023-02-16T12:42:31.789Z,10.36
2023-02-16T12:43:26.776Z,10.41
2023-02-16T12:44:26.754Z,10.41
2023-02-16T12:45:26.784Z,10.70
2023-02-16T12:46:26.730Z,10.84
2023-02-16T12:47:26.722Z,10.88
2023-02-16T12:48:26.711Z,10.96
2023-02-16T12:49:26.693Z,11.11
2023-02-16T12:50:27.008Z,11.09
2023-02-16T12:51:26.692Z,10.92
2023-02-16T12:52:26.661Z,10.91
2023-02-16T12:53:31.689Z,10.85
2023-02-16T12:54:26.639Z,10.89
2023-02-16T12:55:26.688Z,10.89
2023-02-16T12:56:26.652Z,10.88
2023-02-16T12:57:26.616Z,10.97
2023-02-16T12:58:26.813Z,10.94
2023-02-16T12:59:26.586Z,11.09
2023-02-16T13:00:26.593Z,11.14
2023-02-16T13:01:26.592Z,11.29
2023-02-16T13:02:26.543Z,11.62
2023-02-16T13:03:26.561Z,11.91
2023-02-16T13:04:31.563Z,12.02
2023-02-16T13:05:26.521Z,12.31
2023-02-16T13:06:26.501Z,12.47
2023-02-16T13:07:26.514Z,12.95
2023-02-16T13:08:26.488Z,13.03
2023-02-16T13:09:26.480Z,13.04
2023-02-16T13:10:26.482Z,13.11
2023-02-16T13:11:26.473Z,12.83
2023-02-16T13:12:26.437Z,12.56
2023-02-16T13:13:26.489Z,12.41
2023-02-16T13:14:26.846Z,12.32
2023-02-16T13:15:31.429Z,12.23
2023-02-16T13:16:30.671Z,12.29
2023-02-16T13:17:26.383Z,12.21
2023-02-16T13:18:26.367Z,12.17
2023-02-16T13:19:26.383Z,12.16
2023-02-16T13:20:26.356Z,12.12
2023-02-16T13:21:26.356Z,12.13
2023-02-16T13:22:26.325Z,12.13
2023-02-16T13:23:26.322Z,12.10
2023-02-16T13:24:26.327Z,12.24
2023-02-16T13:25:26.361Z,12.23
2023-02-16T13:26:31.364Z,12.21
2023-02-16T13:27:26.273Z,12.20
2023-02-16T13:28:26.407Z,12.19
2023-02-16T13:29:26.360Z,12.27
2023-02-16T13:30:26.498Z,12.27
2023-02-16T13:31:26.398Z,12.27
2023-02-16T13:32:26.213Z,12.24
2023-02-16T13:33:26.202Z,12.27
2023-02-16T13:34:26.208Z,12.13
2023-02-16T13:35:26.199Z,12.20
2023-02-16T13:36:26.165Z,12.17
2023-02-16T13:37:31.174Z,12.23
2023-02-16T13:38:26.143Z,12.24
2023-02-16T13:39:26.146Z,12.24
2023-02-16T13:40:26.117Z,12.28
2023-02-16T13:41:26.115Z,12.34
2023-02-16T13:42:26.094Z,12.23
2023-02-16T13:43:26.095Z,12.31
2023-02-16T13:44:26.081Z,12.38
2023-02-16T13:45:26.095Z,12.34
2023-02-16T13:46:26.056Z,12.29
2023-02-16T13:47:26.041Z,12.23
2023-02-16T13:48:31.047Z,12.24
2023-02-16T13:49:26.037Z,12.34
2023-02-16T13:50:26.007Z,12.47
2023-02-16T13:51:26.014Z,12.45
2023-02-16T13:52:26.011Z,12.53
2023-02-16T13:53:25.971Z,12.54
2023-02-16T13:54:25.971Z,12.47
2023-02-16T13:55:25.947Z,12.54
2023-02-16T13:56:25.937Z,12.62
2023-02-16T13:57:25.924Z,12.62
2023-02-16T13:58:25.914Z,12.68
2023-02-16T13:59:31.498Z,12.68
2023-02-16T14:00:26.529Z,12.74
2023-02-16T14:01:25.947Z,12.71
2023-02-16T14:02:25.870Z,12.78
2023-02-16T14:03:25.856Z,12.75
2023-02-16T14:04:25.878Z,12.83
2023-02-16T14:05:25.850Z,12.90
2023-02-16T14:06:25.822Z,12.87
2023-02-16T14:07:25.819Z,12.87
2023-02-16T14:08:25.800Z,12.87
2023-02-16T14:09:25.789Z,12.93
2023-02-16T14:10:30.808Z,12.89
2023-02-16T14:11:25.765Z,12.95
2023-02-16T14:12:25.769Z,13.00
2023-02-16T14:13:25.749Z,13.04
2023-02-16T14:14:25.735Z,13.05
2023-02-16T14:15:25.733Z,13.03
2023-02-16T14:16:25.714Z,13.10
2023-02-16T14:17:25.721Z,13.05
2023-02-16T14:18:25.689Z,13.00
2023-02-16T14:19:25.679Z,13.11
2023-02-16T14:20:25.681Z,12.93
2023-02-16T14:21:30.676Z,13.00
2023-02-16T14:22:25.638Z,13.00
2023-02-16T14:23:25.629Z,12.89
2023-02-16T14:24:25.619Z,12.90
2023-02-16T14:25:25.618Z,12.92
2023-02-16T14:26:25.594Z,12.90
2023-02-16T14:27:25.586Z,12.95
2023-02-16T14:28:25.592Z,12.93
2023-02-16T14:29:25.565Z,12.97
2023-02-16T14:30:25.598Z,12.93
2023-02-16T14:31:25.656Z,12.93
2023-02-16T14:32:30.567Z,12.90
2023-02-16T14:33:25.522Z,12.89
2023-02-16T14:34:25.508Z,12.90
2023-02-16T14:35:25.506Z,12.86
2023-02-16T14:36:25.481Z,12.93
2023-02-16T14:37:25.469Z,12.92
2023-02-16T14:38:25.466Z,12.96
2023-02-16T14:39:25.449Z,12.90
2023-02-16T14:40:25.451Z,12.87
2023-02-16T14:41:25.430Z,12.90
2023-02-16T14:42:25.412Z,12.78
2023-02-16T14:43:30.433Z,12.87
2023-02-16T14:44:25.388Z,12.85
2023-02-16T14:45:25.396Z,12.85
2023-02-16T14:46:25.396Z,12.87
2023-02-16T14:47:25.355Z,12.77
2023-02-16T14:48:25.364Z,12.70
2023-02-16T14:49:25.331Z,12.71
2023-02-16T14:50:25.327Z,12.77
2023-02-16T14:51:25.320Z,12.83
2023-02-16T14:52:25.308Z,12.75
2023-02-16T14:53:25.287Z,12.83
2023-02-16T14:54:30.348Z,12.77
2023-02-16T14:55:25.265Z,12.70
2023-02-16T14:56:25.835Z,12.71
2023-02-16T14:57:25.264Z,12.70
2023-02-16T14:58:25.231Z,12.65
2023-02-16T14:59:25.216Z,12.68
2023-02-16T15:00:25.206Z,12.62
2023-02-16T15:01:25.330Z,12.67
2023-02-16T15:02:25.199Z,12.68
2023-02-16T15:03:25.376Z,12.68
2023-02-16T15:04:25.177Z,12.70
2023-02-16T15:05:30.178Z,12.70
2023-02-16T15:06:25.149Z,12.68
2023-02-16T15:07:25.127Z,12.71
2023-02-16T15:08:25.113Z,12.64
2023-02-16T15:09:25.105Z,12.60
2023-02-16T15:10:25.090Z,12.59
2023-02-16T15:11:25.095Z,12.68
2023-02-16T15:12:25.067Z,12.70
2023-02-16T15:13:25.077Z,12.70
2023-02-16T15:14:25.072Z,12.70
2023-02-16T15:15:25.036Z,12.64
2023-02-16T15:16:30.314Z,12.64
2023-02-16T15:17:25.057Z,12.59
2023-02-16T15:18:24.999Z,12.54
2023-02-16T15:19:24.990Z,12.59
2023-02-16T15:20:25.017Z,12.57
2023-02-16T15:21:25.033Z,12.54
2023-02-16T15:22:24.997Z,12.57
2023-02-16T15:23:24.975Z,12.56
2023-02-16T15:24:24.931Z,12.59
2023-02-16T15:25:24.920Z,12.46
2023-02-16T15:26:24.955Z,12.52
2023-02-16T15:27:29.992Z,12.47
2023-02-16T15:28:24.900Z,12.45
2023-02-16T15:29:25.071Z,12.47
2023-02-16T15:30:24.988Z,12.47
2023-02-16T15:31:25.067Z,12.35
2023-02-16T15:32:24.848Z,12.38
2023-02-16T15:33:24.828Z,12.35
2023-02-16T15:34:24.839Z,12.31
2023-02-16T15:35:24.823Z,12.34
2023-02-16T15:36:24.833Z,12.35
2023-02-16T15:37:24.814Z,12.28
2023-02-16T15:38:29.794Z,12.31
2023-02-16T15:39:28.171Z,12.35
2023-02-16T15:40:26.711Z,12.29
2023-02-16T15:41:24.750Z,12.21
2023-02-16T15:42:24.734Z,12.23
2023-02-16T15:43:24.715Z,12.21
2023-02-16T15:44:24.704Z,12.23
2023-02-16T15:45:24.691Z,12.27
2023-02-16T15:46:24.729Z,12.24
2023-02-16T15:47:24.675Z,12.29
2023-02-16T15:48:24.661Z,12.23
2023-02-16T15:49:29.671Z,12.31
2023-02-16T15:50:24.635Z,12.23
2023-02-16T15:51:24.669Z,12.23
2023-02-16T15:52:24.644Z,12.14
2023-02-16T15:53:24.599Z,12.16
2023-02-16T15:54:24.588Z,12.10
2023-02-16T15:55:24.576Z,12.13
2023-02-16T15:56:24.577Z,12.14
2023-02-16T15:57:24.559Z,12.04
2023-02-16T15:58:24.558Z,12.01
2023-02-16T15:59:24.549Z,11.95
2023-02-16T16:00:29.548Z,12.07
2023-02-16T16:01:31.620Z,11.99
2023-02-16T16:02:25.512Z,12.02
2023-02-16T16:03:24.488Z,12.05
2023-02-16T16:04:24.572Z,12.02
2023-02-16T16:05:24.476Z,12.07
2023-02-16T16:06:24.451Z,11.98
2023-02-16T16:07:24.546Z,11.96
2023-02-16T16:08:24.503Z,11.99
2023-02-16T16:09:24.474Z,11.98
2023-02-16T16:10:25.538Z,11.94
2023-02-16T16:11:29.579Z,11.95
2023-02-16T16:12:24.644Z,11.90
2023-02-16T16:13:24.378Z,11.94
2023-02-16T16:14:24.383Z,11.95
2023-02-16T16:15:24.369Z,11.90
2023-02-16T16:16:24.424Z,11.95
2023-02-16T16:17:24.404Z,11.88
2023-02-16T16:18:24.320Z,11.80
2023-02-16T16:19:24.354Z,11.85
2023-02-16T16:20:24.350Z,11.83
2023-02-16T16:21:24.308Z,11.78
2023-02-16T16:22:29.342Z,11.78
2023-02-16T16:23:24.277Z,11.80
2023-02-16T16:24:24.292Z,11.75
2023-02-16T16:25:24.280Z,11.76
2023-02-16T16:26:24.237Z,11.65
2023-02-16T16:27:24.323Z,11.60
2023-02-16T16:28:24.238Z,11.58
2023-02-16T16:29:24.537Z,11.58
2023-02-16T16:30:24.372Z,11.57
2023-02-16T16:31:24.271Z,11.65
2023-02-16T16:32:24.195Z,11.54
2023-02-16T16:33:29.187Z,11.54
2023-02-16T16:34:24.147Z,11.62
2023-02-16T16:35:24.142Z,11.55
2023-02-16T16:36:24.298Z,11.52
2023-02-16T16:37:31.872Z,11.54
2023-02-16T16:38:25.353Z,11.46
2023-02-16T16:39:24.428Z,11.44
2023-02-16T16:40:24.810Z,11.52
2023-02-16T16:41:24.095Z,11.43
2023-02-16T16:42:24.328Z,11.43
2023-02-16T16:43:24.069Z,11.46
2023-02-16T16:44:29.143Z,11.35
2023-02-16T16:45:24.060Z,11.29
2023-02-16T16:46:24.039Z,11.32
2023-02-16T16:47:24.068Z,11.33
2023-02-16T16:48:23.991Z,11.19
2023-02-16T16:49:23.967Z,11.28
2023-02-16T16:50:23.982Z,11.35
2023-02-16T16:51:23.953Z,11.24
2023-02-16T16:52:23.989Z,11.14
2023-02-16T16:53:23.942Z,11.14
2023-02-16T16:54:23.937Z,11.11
2023-02-16T16:55:29.238Z,11.11
2023-02-16T16:56:24.202Z,11.24
2023-02-16T16:57:24.060Z,11.04
2023-02-16T16:58:30.874Z,11.14
2023-02-16T16:59:23.901Z,11.14
2023-02-16T17:00:23.872Z,11.10
2023-02-16T17:01:24.289Z,11.03
2023-02-16T17:02:23.821Z,11.14
2023-02-16T17:03:23.850Z,11.11
2023-02-16T17:04:23.938Z,11.09
2023-02-16T17:05:23.844Z,11.06
2023-02-16T17:06:28.836Z,11.03
2023-02-16T17:07:23.781Z,11.04
2023-02-16T17:08:23.847Z,10.99
2023-02-16T17:09:23.763Z,11.00
2023-02-16T17:10:23.748Z,11.02
2023-02-16T17:11:23.838Z,10.99
2023-02-16T17:12:23.729Z,10.96
2023-02-16T17:13:23.730Z,10.88
2023-02-16T17:14:23.917Z,10.86
2023-02-16T17:15:23.749Z,10.86
2023-02-16T17:16:23.985Z,10.85
2023-02-16T17:17:28.847Z,10.84
2023-02-16T17:18:23.639Z,10.86
2023-02-16T17:19:23.640Z,10.79
2023-02-16T17:20:23.609Z,10.79
2023-02-16T17:21:23.593Z,10.88
2023-02-16T17:22:23.585Z,10.85
2023-02-16T17:23:23.582Z,10.88
2023-02-16T17:24:23.560Z,10.82
2023-02-16T17:25:23.551Z,10.84
2023-02-16T17:26:23.537Z,10.84
2023-02-16T17:27:23.546Z,10.74
2023-02-16T17:28:28.547Z,10.74
2023-02-16T17:29:23.499Z,10.76
2023-02-16T17:30:23.583Z,10.48
2023-02-16T17:31:23.597Z,10.45
2023-02-16T17:32:23.580Z,10.36
2023-02-16T17:33:23.471Z,10.29
2023-02-16T17:34:23.445Z,10.25
2023-02-16T17:35:23.432Z,10.26
2023-02-16T17:36:23.420Z,10.23
2023-02-16T17:37:23.409Z,10.09
2023-02-16T17:38:23.439Z,10.07
2023-02-16T17:39:28.410Z,10.01
2023-02-16T17:40:23.375Z,10.05
2023-02-16T17:41:23.362Z,10.04
2023-02-16T17:42:23.353Z,10.04
2023-02-16T17:43:23.370Z,10.14
2023-02-16T17:44:23.338Z,10.08
2023-02-16T17:45:23.346Z,10.08
2023-02-16T17:46:23.460Z,10.05
2023-02-16T17:47:23.300Z,9.96
2023-02-16T17:48:23.306Z,9.99
2023-02-16T17:49:23.279Z,9.99
2023-02-16T17:50:28.294Z,9.90
2023-02-16T17:51:23.250Z,9.93
2023-02-16T17:52:23.240Z,9.90
2023-02-16T17:53:23.237Z,9.91
2023-02-16T17:54:23.217Z,9.84
2023-02-16T17:55:23.203Z,9.86
2023-02-16T17:56:23.203Z,9.78
2023-02-16T17:57:23.198Z,9.84
2023-02-16T17:58:23.200Z,9.84
2023-02-16T17:59:23.189Z,9.76
2023-02-16T18:00:23.154Z,9.78
2023-02-16T18:01:28.215Z,9.84
2023-02-16T18:02:23.145Z,9.78
2023-02-16T18:03:23.146Z,9.79
2023-02-16T18:04:23.192Z,9.71
2023-02-16T18:05:23.094Z,9.74
2023-02-16T18:06:23.083Z,9.71
2023-02-16T18:07:23.074Z,9.75
2023-02-16T18:08:23.065Z,9.74
2023-02-16T18:09:23.058Z,9.69